createdAt,value
2019-03-23T00:02:00.319Z,5.70
2019-03-23T00:04:28.375Z,5.50
2019-03-23T00:06:56.469Z,5.40
2019-03-23T00:09:24.523Z,5.40
2019-03-23T00:11:52.570Z,5.50
2019-03-23T00:14:20.624Z,5.40
2019-03-23T00:16:49.452Z,5.50
2019-03-23T00:19:17.490Z,5.50
2019-03-23T00:21:45.577Z,5.60
2019-03-23T00:24:13.623Z,5.50
2019-03-23T00:26:42.502Z,5.20
2019-03-23T00:29:11.319Z,5.10
2019-03-23T00:31:39.363Z,5.10
2019-03-23T00:34:08.278Z,4.90
2019-03-23T00:36:41.523Z,4.90
2019-03-23T00:39:05.239Z,5.10
2019-03-23T00:41:33.291Z,5.10
2019-03-23T00:44:02.819Z,5.10
2019-03-23T00:46:30.871Z,5.10
2019-03-23T00:48:58.900Z,5.10
2019-03-23T00:51:26.960Z,4.80
2019-03-23T00:53:55.130Z,4.70
2019-03-23T00:56:23.261Z,4.40
2019-03-23T00:58:51.325Z,4.50
2019-03-23T01:01:19.351Z,4.60
2019-03-23T01:03:47.481Z,4.50
2019-03-23T01:06:15.539Z,4.60
2019-03-23T01:08:43.630Z,4.80
2019-03-23T01:11:11.730Z,4.90
2019-03-23T01:13:39.758Z,4.90
2019-03-23T01:16:07.815Z,4.90
2019-03-23T01:18:36.673Z,4.80
2019-03-23T01:21:04.787Z,4.80
2019-03-23T01:23:32.870Z,4.70
2019-03-23T01:26:00.974Z,4.60
2019-03-23T01:28:28.978Z,4.60
2019-03-23T01:30:57.001Z,4.60
2019-03-23T01:33:25.144Z,4.60
2019-03-23T01:35:53.254Z,4.60
2019-03-23T01:38:21.387Z,4.60
2019-03-23T01:40:49.444Z,4.70
2019-03-23T01:43:18.286Z,4.80
2019-03-23T01:45:46.339Z,4.80
2019-03-23T01:48:14.378Z,4.60
2019-03-23T01:50:42.471Z,4.50
2019-03-23T01:53:11.290Z,4.40
2019-03-23T01:55:39.407Z,4.40
2019-03-23T01:58:07.528Z,4.50
2019-03-23T02:00:35.586Z,4.50
2019-03-23T02:03:03.626Z,4.40
2019-03-23T02:05:31.716Z,4.30
2019-03-23T02:08:00.499Z,4.30
2019-03-23T02:10:28.525Z,4.20
2019-03-23T02:12:57.391Z,4.20
2019-03-23T02:15:25.519Z,4.20
2019-03-23T02:17:53.580Z,4.20
2019-03-23T02:20:21.607Z,4.00
2019-03-23T02:22:49.738Z,3.90
2019-03-23T02:25:17.798Z,3.90
2019-03-23T02:27:45.838Z,3.90
2019-03-23T02:30:13.895Z,4.00
2019-03-23T02:32:41.910Z,4.10
2019-03-23T02:35:09.963Z,4.10
2019-03-23T02:37:38.796Z,3.90
2019-03-23T02:40:07.759Z,3.90
2019-03-23T02:42:35.826Z,3.90
2019-03-23T02:45:04.824Z,4.00
2019-03-23T02:47:32.888Z,4.10
2019-03-23T02:50:00.975Z,4.10
2019-03-23T02:52:29.759Z,4.00
2019-03-23T02:54:57.867Z,4.00
2019-03-23T02:57:25.961Z,4.10
2019-03-23T02:59:54.075Z,4.20
2019-03-23T03:02:22.909Z,4.20
2019-03-23T03:04:52.497Z,4.10
2019-03-23T03:07:20.565Z,4.10
2019-03-23T03:09:48.579Z,4.00
2019-03-23T03:12:17.407Z,3.90
2019-03-23T03:14:45.431Z,3.80
2019-03-23T03:17:14.243Z,3.80
2019-03-23T03:19:42.327Z,3.80
2019-03-23T03:22:10.422Z,3.80
2019-03-23T03:24:38.480Z,3.90
2019-03-23T03:27:06.574Z,4.10
2019-03-23T03:29:34.656Z,4.10
2019-03-23T03:32:02.793Z,3.90
2019-03-23T03:34:30.795Z,3.90
2019-03-23T03:36:58.839Z,3.80
2019-03-23T03:39:26.875Z,3.80
2019-03-23T03:41:54.929Z,3.80
2019-03-23T03:44:23.747Z,3.70
2019-03-23T03:46:52.628Z,3.70
2019-03-23T03:49:20.665Z,3.70
2019-03-23T03:51:48.768Z,3.70
2019-03-23T03:54:16.862Z,3.80
2019-03-23T03:56:44.906Z,3.80
2019-03-23T03:59:12.957Z,3.90
2019-03-23T04:01:41.809Z,3.50
2019-03-23T04:04:09.952Z,3.50
2019-03-23T04:06:38.754Z,3.70
2019-03-23T04:09:06.789Z,3.70
2019-03-23T04:11:34.976Z,3.80
2019-03-23T04:14:04.110Z,3.50
2019-03-23T04:16:32.247Z,3.50
2019-03-23T04:19:01.124Z,3.70
2019-03-23T04:21:29.222Z,3.70
2019-03-23T04:23:57.271Z,3.60
2019-03-23T04:26:25.341Z,3.50
2019-03-23T04:28:53.409Z,3.50
2019-03-23T04:31:21.492Z,3.50
2019-03-23T04:33:49.593Z,3.40
2019-03-23T04:36:17.626Z,3.50
2019-03-23T04:38:45.728Z,3.50
2019-03-23T04:41:13.741Z,3.40
2019-03-23T04:43:42.557Z,3.30
2019-03-23T04:46:10.599Z,3.30
2019-03-23T04:48:39.419Z,3.40
2019-03-23T04:51:07.463Z,3.30
2019-03-23T04:53:36.292Z,3.30
2019-03-23T04:56:04.438Z,3.30
2019-03-23T04:58:32.478Z,3.30
2019-03-23T05:01:01.284Z,3.40
2019-03-23T05:03:29.330Z,3.40
2019-03-23T05:05:58.139Z,3.40
2019-03-23T05:08:33.433Z,3.30
2019-03-23T05:10:54.999Z,3.30
2019-03-23T05:13:23.088Z,3.20
2019-03-23T05:15:51.147Z,3.20
2019-03-23T05:18:19.273Z,3.20
2019-03-23T05:20:47.406Z,3.20
2019-03-23T05:23:15.502Z,3.20
2019-03-23T05:25:43.506Z,3.20
2019-03-23T05:28:12.327Z,3.20
2019-03-23T05:30:40.366Z,3.20
2019-03-23T05:33:09.182Z,3.10
2019-03-23T05:35:37.239Z,3.10
2019-03-23T05:38:05.327Z,3.10
2019-03-23T05:40:33.395Z,3.20
2019-03-23T05:43:01.457Z,3.30
2019-03-23T05:45:29.586Z,3.40
2019-03-23T05:47:57.649Z,3.20
2019-03-23T05:50:25.698Z,3.20
2019-03-23T05:52:53.743Z,3.30
2019-03-23T05:55:21.853Z,3.40
2019-03-23T05:57:50.039Z,3.60
2019-03-23T06:00:18.060Z,3.60
2019-03-23T06:02:46.106Z,3.70
2019-03-23T06:05:14.198Z,3.70
2019-03-23T06:07:42.275Z,3.90
2019-03-23T06:10:10.345Z,4.00
2019-03-23T06:12:38.514Z,4.00
2019-03-23T06:15:06.562Z,3.90
2019-03-23T06:17:35.381Z,4.20
2019-03-23T06:20:04.720Z,4.20
2019-03-23T06:22:32.235Z,4.50
2019-03-23T06:25:00.394Z,4.40
2019-03-23T06:27:28.378Z,4.50
2019-03-23T06:29:56.442Z,4.50
2019-03-23T06:32:24.493Z,4.60
2019-03-23T06:34:53.346Z,7.00
2019-03-23T06:37:21.355Z,7.00
2019-03-23T06:39:50.171Z,8.80
2019-03-23T06:42:18.261Z,8.80
2019-03-23T06:44:46.298Z,9.20
2019-03-23T06:47:14.339Z,9.10
2019-03-23T06:49:43.263Z,8.80
2019-03-23T06:52:11.303Z,8.80
2019-03-23T06:54:39.355Z,8.70
2019-03-23T06:57:07.468Z,8.70
2019-03-23T06:59:35.518Z,8.80
2019-03-23T07:02:04.371Z,9.10
2019-03-23T07:04:32.498Z,9.10
2019-03-23T07:07:00.538Z,9.30
2019-03-23T07:09:28.684Z,9.70
2019-03-23T07:11:56.729Z,10.00
2019-03-23T07:14:24.780Z,10.20
2019-03-23T07:16:52.858Z,10.60
2019-03-23T07:19:20.927Z,11.10
2019-03-23T07:21:48.982Z,11.00
2019-03-23T07:24:17.110Z,10.50
2019-03-23T07:26:45.287Z,10.10
2019-03-23T07:29:13.522Z,10.40
2019-03-23T07:31:41.580Z,11.10
2019-03-23T07:34:09.673Z,11.50
2019-03-23T07:36:37.722Z,11.80
2019-03-23T07:39:05.780Z,12.30
2019-03-23T07:41:33.878Z,12.70
2019-03-23T07:44:01.910Z,13.00
2019-03-23T07:46:30.819Z,13.60
2019-03-23T07:48:58.902Z,13.60
2019-03-23T07:51:27.004Z,14.00
2019-03-23T07:53:55.051Z,14.20
2019-03-23T07:56:23.131Z,14.20
2019-03-23T07:58:51.213Z,14.40
2019-03-23T08:01:19.305Z,14.30
2019-03-23T08:03:47.424Z,14.80
2019-03-23T08:06:15.479Z,15.10
2019-03-23T08:08:43.571Z,15.10
2019-03-23T08:11:11.660Z,15.30
2019-03-23T08:13:39.706Z,15.60
2019-03-23T08:16:07.767Z,15.70
2019-03-23T08:18:35.821Z,15.30
2019-03-23T08:21:04.683Z,15.40
2019-03-23T08:23:32.806Z,15.40
2019-03-23T08:26:00.914Z,15.20
2019-03-23T08:28:28.965Z,15.30
2019-03-23T08:30:57.023Z,15.80
2019-03-23T08:33:25.062Z,15.90
2019-03-23T08:35:53.887Z,16.00
2019-03-23T08:38:21.973Z,16.00
2019-03-23T08:40:50.062Z,16.20
2019-03-23T08:43:18.186Z,16.60
2019-03-23T08:45:46.254Z,17.10
2019-03-23T08:48:14.331Z,16.80
2019-03-23T08:50:42.400Z,16.70
2019-03-23T08:53:11.179Z,17.00
2019-03-23T08:55:39.238Z,17.00
2019-03-23T08:58:07.295Z,17.10
2019-03-23T09:00:35.403Z,17.40
2019-03-23T09:03:03.881Z,17.60
2019-03-23T09:05:31.565Z,17.80
2019-03-23T09:07:59.717Z,17.90
2019-03-23T09:10:27.784Z,17.90
2019-03-23T09:12:55.902Z,18.00
2019-03-23T09:15:24.065Z,18.40
2019-03-23T09:17:52.100Z,18.20
2019-03-23T09:20:20.167Z,18.40
2019-03-23T09:22:48.262Z,18.50
2019-03-23T09:25:16.311Z,18.30
2019-03-23T09:27:44.427Z,18.70
2019-03-23T09:30:12.445Z,18.80
2019-03-23T09:32:40.518Z,19.00
2019-03-23T09:35:08.562Z,19.20
2019-03-23T09:37:38.248Z,19.60
2019-03-23T09:40:10.799Z,19.90
2019-03-23T09:42:33.220Z,19.70
2019-03-23T09:45:01.262Z,19.70
2019-03-23T09:47:30.798Z,19.60
2019-03-23T09:49:58.850Z,19.60
2019-03-23T09:52:26.981Z,19.90
2019-03-23T09:54:56.525Z,19.80
2019-03-23T09:57:24.579Z,19.80
2019-03-23T09:59:53.394Z,19.20
2019-03-23T10:02:21.489Z,19.20
2019-03-23T10:04:49.539Z,19.10
2019-03-23T10:07:17.586Z,19.50
2019-03-23T10:09:47.115Z,19.40
2019-03-23T10:12:15.162Z,19.40
2019-03-23T10:14:43.263Z,19.30
2019-03-23T10:17:11.519Z,19.60
2019-03-23T10:19:39.530Z,20.10
2019-03-23T10:22:07.657Z,19.90
2019-03-23T10:24:35.733Z,19.50
2019-03-23T10:27:03.788Z,19.70
2019-03-23T10:29:32.698Z,19.10
2019-03-23T10:32:00.790Z,19.10
2019-03-23T10:34:28.811Z,19.00
2019-03-23T10:36:58.081Z,19.70
2019-03-23T10:39:26.094Z,19.60
2019-03-23T10:41:54.163Z,20.10
2019-03-23T10:44:22.283Z,20.60
2019-03-23T10:46:50.410Z,20.90
2019-03-23T10:49:18.490Z,21.00
2019-03-23T10:51:46.559Z,20.90
2019-03-23T10:54:15.351Z,21.10
2019-03-23T10:56:43.465Z,21.10
2019-03-23T10:59:11.519Z,21.20
2019-03-23T11:01:39.566Z,21.30
2019-03-23T11:04:07.699Z,21.50
2019-03-23T11:06:36.662Z,21.30
2019-03-23T11:09:04.771Z,21.30
2019-03-23T11:11:32.862Z,21.20
2019-03-23T11:14:00.940Z,21.50
2019-03-23T11:16:29.045Z,21.70
2019-03-23T11:18:57.070Z,21.00
2019-03-23T11:21:25.151Z,20.80
2019-03-23T11:23:53.315Z,21.30
2019-03-23T11:26:22.105Z,21.10
2019-03-23T11:28:50.167Z,21.00
2019-03-23T11:31:18.243Z,21.10
2019-03-23T11:33:46.312Z,21.30
2019-03-23T11:36:15.090Z,21.70
2019-03-23T11:38:43.191Z,21.70
2019-03-23T11:41:11.341Z,21.80
2019-03-23T11:43:39.431Z,21.80
2019-03-23T11:46:07.510Z,22.40
2019-03-23T11:48:35.573Z,22.70
2019-03-23T11:51:03.618Z,22.90
2019-03-23T11:53:31.648Z,22.50
2019-03-23T11:55:59.817Z,21.60
2019-03-23T11:58:27.873Z,21.90
2019-03-23T12:00:55.954Z,22.10
2019-03-23T12:03:24.132Z,22.40
2019-03-23T12:05:52.143Z,22.40
2019-03-23T12:08:20.236Z,22.20
2019-03-23T12:10:48.294Z,22.70
2019-03-23T12:13:16.379Z,22.70
2019-03-23T12:15:44.417Z,22.40
2019-03-23T12:18:12.470Z,22.20
2019-03-23T12:20:41.296Z,22.50
2019-03-23T12:23:09.376Z,22.50
2019-03-23T12:25:37.433Z,22.90
2019-03-23T12:28:05.473Z,22.90
2019-03-23T12:30:33.543Z,22.70
2019-03-23T12:33:01.595Z,22.70
2019-03-23T12:35:29.654Z,22.40
2019-03-23T12:37:57.710Z,22.20
2019-03-23T12:40:25.914Z,22.50
2019-03-23T12:42:54.001Z,22.20
2019-03-23T12:45:22.909Z,22.40
2019-03-23T12:47:51.002Z,22.40
2019-03-23T12:50:19.884Z,23.40
2019-03-23T12:52:47.993Z,23.40
2019-03-23T12:55:16.118Z,23.00
2019-03-23T12:57:44.197Z,22.70
2019-03-23T13:00:14.711Z,22.50
2019-03-23T13:02:42.768Z,22.40
2019-03-23T13:05:10.863Z,22.40
2019-03-23T13:07:38.985Z,22.30
2019-03-23T13:10:07.924Z,22.40
2019-03-23T13:12:35.995Z,22.00
2019-03-23T13:15:04.794Z,22.00
2019-03-23T13:17:33.579Z,21.90
2019-03-23T13:20:02.383Z,22.10
2019-03-23T13:22:30.461Z,22.00
2019-03-23T13:24:58.553Z,21.90
2019-03-23T13:27:27.367Z,21.40
2019-03-23T13:29:56.196Z,21.50
2019-03-23T13:32:24.239Z,21.50
2019-03-23T13:34:52.389Z,21.70
2019-03-23T13:37:20.465Z,21.70
2019-03-23T13:39:49.327Z,21.90
2019-03-23T13:42:17.363Z,21.80
2019-03-23T13:44:45.470Z,21.40
2019-03-23T13:47:13.504Z,21.60
2019-03-23T13:49:41.559Z,21.20
2019-03-23T13:52:10.351Z,20.60
2019-03-23T13:54:39.201Z,20.70
2019-03-23T13:57:07.243Z,20.70
2019-03-23T13:59:35.294Z,20.80
2019-03-23T14:02:03.442Z,21.00
2019-03-23T14:04:31.540Z,21.20
2019-03-23T14:06:59.594Z,20.80
2019-03-23T14:09:27.648Z,20.60
2019-03-23T14:11:55.830Z,20.70
2019-03-23T14:14:24.002Z,21.00
2019-03-23T14:16:52.799Z,20.80
2019-03-23T14:19:21.616Z,20.60
2019-03-23T14:21:49.797Z,20.60
2019-03-23T14:24:17.843Z,20.50
2019-03-23T14:26:45.922Z,20.60
2019-03-23T14:29:13.976Z,20.50
2019-03-23T14:31:42.135Z,20.30
2019-03-23T14:34:10.187Z,20.40
2019-03-23T14:36:38.355Z,20.40
2019-03-23T14:39:06.454Z,20.40
2019-03-23T14:41:34.520Z,20.30
2019-03-23T14:44:02.564Z,20.20
2019-03-23T14:46:30.614Z,20.40
2019-03-23T14:49:01.670Z,20.20
2019-03-23T14:51:26.809Z,19.80
2019-03-23T14:53:54.851Z,19.90
2019-03-23T14:56:23.714Z,20.20
2019-03-23T14:58:51.814Z,20.20
2019-03-23T15:01:19.850Z,20.00
2019-03-23T15:03:47.894Z,20.00
2019-03-23T15:06:15.997Z,19.80
2019-03-23T15:08:44.040Z,19.70
2019-03-23T15:11:12.145Z,19.80
2019-03-23T15:13:40.226Z,19.70
2019-03-23T15:16:09.033Z,19.30
2019-03-23T15:18:37.835Z,19.20
2019-03-23T15:21:05.886Z,19.20
2019-03-23T15:23:33.951Z,19.20
2019-03-23T15:26:02.775Z,19.00
2019-03-23T15:28:30.790Z,19.10
2019-03-23T15:30:58.862Z,18.90
2019-03-23T15:33:26.971Z,18.70
2019-03-23T15:35:55.897Z,18.70
2019-03-23T15:38:23.997Z,18.70
2019-03-23T15:40:52.079Z,18.60
2019-03-23T15:43:20.939Z,18.60
2019-03-23T15:45:49.102Z,18.60
2019-03-23T15:48:17.155Z,18.60
2019-03-23T15:50:45.245Z,18.60
2019-03-23T15:53:13.391Z,18.40
2019-03-23T15:55:42.210Z,18.00
2019-03-23T15:58:10.367Z,17.90
2019-03-23T16:00:38.458Z,18.00
2019-03-23T16:03:06.553Z,18.00
2019-03-23T16:05:34.586Z,18.00
2019-03-23T16:08:02.615Z,17.80
2019-03-23T16:10:30.739Z,17.80
2019-03-23T16:12:58.807Z,17.90
2019-03-23T16:15:26.846Z,17.90
2019-03-23T16:17:55.002Z,17.90
2019-03-23T16:20:23.082Z,17.80
2019-03-23T16:22:51.135Z,17.70
2019-03-23T16:25:19.965Z,17.50
2019-03-23T16:27:49.200Z,17.50
2019-03-23T16:30:18.032Z,17.50
2019-03-23T16:32:46.814Z,17.50
2019-03-23T16:35:14.938Z,17.50
2019-03-23T16:37:44.630Z,17.40
2019-03-23T16:40:12.666Z,17.40
2019-03-23T16:42:45.171Z,17.30
2019-03-23T16:45:08.782Z,17.20
2019-03-23T16:47:36.910Z,17.40
2019-03-23T16:50:04.950Z,17.50
2019-03-23T16:52:33.006Z,17.70
2019-03-23T16:55:01.184Z,17.70
2019-03-23T16:57:29.261Z,17.90
2019-03-23T16:59:57.667Z,18.10
2019-03-23T17:02:25.734Z,18.10
2019-03-23T17:04:53.791Z,18.40
2019-03-23T17:07:21.998Z,18.50
2019-03-23T17:09:51.567Z,18.60
2019-03-23T17:12:19.638Z,18.60
2019-03-23T17:14:47.693Z,18.50
2019-03-23T17:18:25.303Z,18.40
2019-03-23T17:20:53.394Z,18.40
2019-03-23T17:23:21.489Z,18.20
2019-03-23T17:25:49.570Z,18.00
2019-03-23T17:28:17.700Z,17.70
2019-03-23T17:30:45.851Z,17.40
2019-03-23T17:33:14.777Z,16.70
2019-03-23T17:35:43.551Z,16.60
2019-03-23T17:38:11.599Z,16.70
2019-03-23T17:40:39.642Z,16.50
2019-03-23T17:43:08.463Z,16.00
2019-03-23T17:45:36.666Z,15.90
2019-03-23T17:48:04.685Z,15.80
2019-03-23T17:50:32.741Z,15.70
2019-03-23T17:53:01.560Z,15.50
2019-03-23T17:55:30.377Z,15.40
2019-03-23T17:57:58.565Z,15.40
2019-03-23T18:00:26.608Z,15.50
2019-03-23T18:02:54.704Z,15.50
2019-03-23T18:05:22.755Z,15.30
2019-03-23T18:07:50.823Z,15.20
2019-03-23T18:10:18.905Z,15.10
2019-03-23T18:12:46.996Z,14.90
2019-03-23T18:15:15.161Z,14.80
2019-03-23T18:17:43.300Z,14.90
2019-03-23T18:20:11.422Z,14.70
2019-03-23T18:22:39.660Z,14.60
2019-03-23T18:25:08.527Z,14.40
2019-03-23T18:27:36.667Z,14.40
2019-03-23T18:30:05.504Z,14.20
2019-03-23T18:32:33.563Z,14.50
2019-03-23T18:35:03.205Z,14.50
2019-03-23T18:37:31.331Z,14.10
2019-03-23T18:39:59.391Z,14.10
2019-03-23T18:49:56.478Z,13.50
2019-03-23T18:52:25.355Z,13.40
2019-03-23T18:54:54.276Z,13.30
2019-03-23T18:57:22.356Z,13.30
2019-03-23T18:59:50.559Z,13.20
2019-03-23T19:02:18.615Z,13.10
2019-03-23T19:04:46.726Z,13.10
2019-03-23T19:07:14.850Z,13.10
2019-03-23T19:09:42.938Z,13.20
2019-03-23T19:12:11.075Z,13.00
2019-03-23T19:14:39.149Z,12.90
2019-03-23T19:17:07.213Z,13.00
2019-03-23T19:19:35.323Z,12.90
2019-03-23T19:22:03.572Z,12.80
2019-03-23T19:24:31.635Z,12.70
2019-03-23T19:26:59.711Z,12.60
2019-03-23T19:29:27.821Z,12.30
2019-03-23T19:31:55.839Z,12.20
2019-03-23T19:34:23.960Z,12.20
2019-03-23T19:36:52.020Z,12.20
2019-03-23T19:39:20.222Z,12.30
2019-03-23T19:41:48.356Z,12.30
2019-03-23T19:44:16.428Z,12.20
2019-03-23T19:46:44.483Z,12.30
2019-03-23T19:49:12.555Z,12.30
2019-03-23T19:51:40.590Z,12.20
2019-03-23T19:54:08.706Z,12.20
2019-03-23T19:56:36.886Z,11.90
2019-03-23T19:59:04.955Z,11.90
2019-03-23T20:01:33.141Z,12.00
2019-03-23T20:04:01.225Z,12.00
2019-03-23T20:06:29.391Z,12.00
2019-03-23T20:08:57.439Z,11.90
2019-03-23T20:11:25.633Z,12.00
2019-03-23T20:13:58.777Z,11.90
2019-03-23T20:16:22.479Z,11.80
2019-03-23T20:18:50.536Z,11.80
2019-03-23T20:21:18.949Z,11.60
2019-03-23T20:23:46.979Z,11.40
2019-03-23T20:26:15.251Z,11.40
2019-03-23T20:28:43.307Z,11.00
2019-03-23T20:31:11.371Z,11.10
2019-03-23T20:33:39.422Z,11.10
2019-03-23T20:36:08.250Z,11.00
2019-03-23T20:38:36.304Z,11.00
2019-03-23T20:41:04.377Z,10.90
2019-03-23T20:43:32.437Z,10.90
2019-03-23T20:46:00.627Z,11.00
2019-03-23T20:48:28.687Z,10.90
2019-03-23T20:50:56.769Z,10.90
2019-03-23T20:53:24.841Z,10.90
2019-03-23T20:55:52.907Z,10.80
2019-03-23T20:58:20.956Z,11.00
2019-03-23T21:00:49.788Z,10.80
2019-03-23T21:03:17.864Z,10.70
2019-03-23T21:05:45.915Z,10.90
2019-03-23T21:08:13.965Z,10.90
2019-03-23T21:10:42.059Z,10.70
2019-03-23T21:13:10.095Z,10.60
2019-03-23T21:15:39.003Z,10.40
2019-03-23T21:18:07.891Z,10.20
2019-03-23T21:20:35.963Z,10.20
2019-03-23T21:23:04.747Z,10.30
2019-03-23T21:25:32.843Z,10.30
2019-03-23T21:28:00.867Z,10.20
2019-03-23T21:30:29.687Z,9.90
2019-03-23T21:32:58.572Z,9.80
2019-03-23T21:35:26.635Z,9.80
2019-03-23T21:37:54.647Z,9.60
2019-03-23T21:40:22.831Z,9.70
2019-03-23T21:42:50.859Z,9.60
2019-03-23T21:45:18.931Z,9.50
2019-03-23T21:47:46.995Z,9.40
2019-03-23T21:50:15.784Z,9.60
2019-03-23T21:52:43.840Z,9.60
2019-03-23T21:55:11.928Z,9.50
2019-03-23T21:57:39.997Z,9.40
2019-03-23T22:00:08.053Z,9.30
2019-03-23T22:02:36.102Z,9.20
2019-03-23T22:05:04.928Z,9.20
2019-03-23T22:07:33.807Z,9.20
2019-03-23T22:10:01.861Z,9.20
2019-03-23T22:12:31.404Z,9.40
2019-03-23T22:14:59.442Z,9.40
2019-03-23T22:17:27.491Z,9.30
2019-03-23T22:19:56.297Z,9.10
2019-03-23T22:22:25.118Z,9.10
2019-03-23T22:24:53.158Z,9.00
2019-03-23T22:27:21.216Z,9.20
2019-03-23T22:29:50.020Z,8.90
2019-03-23T22:32:18.077Z,8.80
2019-03-23T22:34:49.125Z,8.80
2019-03-23T22:37:14.968Z,8.70
2019-03-23T22:39:43.005Z,8.80
2019-03-23T22:42:11.102Z,8.80
2019-03-23T22:44:39.166Z,8.80
2019-03-23T22:47:07.218Z,8.70
2019-03-23T22:49:36.744Z,8.60
2019-03-23T22:52:04.800Z,8.60
2019-03-23T22:54:32.843Z,8.50
2019-03-23T22:57:00.895Z,8.30
2019-03-23T22:59:28.919Z,8.30
2019-03-23T23:01:56.974Z,8.30
2019-03-23T23:04:25.799Z,8.20
2019-03-23T23:06:53.856Z,8.20
2019-03-23T23:09:21.891Z,8.10
2019-03-23T23:11:49.919Z,8.10
2019-03-23T23:14:17.963Z,8.30
2019-03-23T23:16:46.027Z,8.30
2019-03-23T23:19:14.811Z,8.40
2019-03-23T23:21:42.869Z,8.30
2019-03-23T23:24:10.892Z,8.30
2019-03-23T23:26:39.027Z,8.10
2019-03-23T23:29:07.078Z,8.00
2019-03-23T23:31:35.096Z,8.00
2019-03-23T23:34:03.145Z,8.00
2019-03-23T23:36:31.194Z,8.00
2019-03-23T23:38:59.284Z,8.10
2019-03-23T23:41:27.324Z,8.10
2019-03-23T23:43:56.148Z,8.00
2019-03-23T23:46:24.186Z,8.00
2019-03-23T23:48:53.025Z,7.90
2019-03-23T23:51:21.072Z,7.90
2019-03-23T23:53:49.159Z,7.90
2019-03-23T23:56:17.921Z,7.90
2019-03-23T23:58:45.975Z,7.80
